Detall de PIREP

Printer-friendly versionPDF version

[2016/08/15 15:46:00]
Flight IATA:CT1004
Pilot Number:012
Company ICAO:CAT
Aircraft Type:C750/F
PAX:4
Departing Airport: LIEA
Destination Airport: LDSP
Alternate Airport:LOWW
Online: VATSIM
Route:MINKA UL5 VAPUP
Flight Level:F330
No Slew and time accel
No pause
Crash detect
Detect pilot in Cockpit between each 30 and 45 minutes
15:46 Zero fuel Weight: 22898 Lbs, Fuel Weight: 6278 Lbs
15:46 VATSIM:LIEA 151520Z 29008KT 250V330 CAVOK 28/21 Q1018
15:46 VATSIM:LDSP 151530Z 22009KT CAVOK 27/21 Q1017 NOSIG
15:47 SUMMER CHARTER
15:52 Parking Brakes off
15:56 Take-off
15:56 Take off Weight: 29075 Lbs
15:56 Wind: 291º @ 008 Knots Heading: 206º
15:56 POS N40º 37´ 51´´ E008º 17´ 24´´
15:56 Gear Up: 154 Knots
15:56 Flaps:3 at 154 Knots
15:56 Flaps:2 at 184 Knots
15:57 Flaps:0 at 194 Knots
16:06 TOC
16:06 Fuel Weight: 5714 Lb
16:11 Wind:263º@034 Knots Heading: 067º GroundSpeed: 546 Knots Altitude 33146 ft
16:26 Wind:270º@033 Knots Heading: 059º Ground Speed: 542 Knots Altitude 33198 ft
16:32 TOD
16:32 Fuel Weight: 4949 Lb
16:41 Wind:277º@015 Knots Heading: 058º Ground Speed: 372 Knots Altitude 15288 ft
16:47 Flaps:2 at 223 Knots
16:48 Flaps:3 at 217 Knots
16:48 Gear Down: 222 Knots
16:48 Flaps:4 at 220 Knots
16:49 Flaps:5 at 177 Knots
16:51 TouchDown:Rate -77 ft/min Speed: 120 Knots
16:51 VATSIM:LDSP 151630Z 22006KT 200V260 CAVOK 26/20 Q1016 NOSIG
16:51 Land
16:51 Wind:216º@006 Knots
16:51 Heading: 056º
16:51 Flight Duration: 00:55
16:51 Landing Weight: 27644 Lbs
16:51 POS N43º 32´ 31´´ E016º 18´ 12´´
16:54 Parking brakes on
16:54 Block to Block Duration: 01:02
16:54 Final Fuel: 4713 Lbls
16:54 Spent Fuel: 1565 Lbls
16:54 Flight Length: 410 NM
16:54 TOD Land Length: 110 NM

Exportar CSV

Powered by Drupal - Modified by Danger4k